sensor_id;sensor_type;location;lat;lon;timestamp;temperature;humidity
76040;SHT30;64736;50.462;4.850;2023-09-19T00:00:31;15.60;85.96
76040;SHT30;64736;50.462;4.850;2023-09-19T00:02:58;15.57;85.81
76040;SHT30;64736;50.462;4.850;2023-09-19T00:05:28;15.59;85.60
76040;SHT30;64736;50.462;4.850;2023-09-19T00:07:55;15.54;85.58
76040;SHT30;64736;50.462;4.850;2023-09-19T00:10:24;15.54;85.48
76040;SHT30;64736;50.462;4.850;2023-09-19T00:12:53;15.53;85.16
76040;SHT30;64736;50.462;4.850;2023-09-19T00:15:27;15.53;85.21
76040;SHT30;64736;50.462;4.850;2023-09-19T00:17:56;15.51;85.42
76040;SHT30;64736;50.462;4.850;2023-09-19T00:20:22;15.50;85.34
76040;SHT30;64736;50.462;4.850;2023-09-19T00:22:52;15.46;85.17
76040;SHT30;64736;50.462;4.850;2023-09-19T00:25:19;15.46;85.24
76040;SHT30;64736;50.462;4.850;2023-09-19T00:27:46;15.44;85.40
76040;SHT30;64736;50.462;4.850;2023-09-19T00:30:13;15.44;85.16
76040;SHT30;64736;50.462;4.850;2023-09-19T00:32:46;15.42;85.30
76040;SHT30;64736;50.462;4.850;2023-09-19T00:35:17;15.40;85.31
76040;SHT30;64736;50.462;4.850;2023-09-19T00:37:44;15.38;85.03
76040;SHT30;64736;50.462;4.850;2023-09-19T00:40:11;15.36;84.80
76040;SHT30;64736;50.462;4.850;2023-09-19T00:42:39;15.32;83.76
76040;SHT30;64736;50.462;4.850;2023-09-19T00:45:07;15.38;83.83
76040;SHT30;64736;50.462;4.850;2023-09-19T00:47:35;15.30;83.71
76040;SHT30;64736;50.462;4.850;2023-09-19T00:50:01;15.30;83.29
76040;SHT30;64736;50.462;4.850;2023-09-19T00:52:28;15.28;82.76
76040;SHT30;64736;50.462;4.850;2023-09-19T00:54:54;15.25;82.95
76040;SHT30;64736;50.462;4.850;2023-09-19T00:57:20;15.25;82.24
76040;SHT30;64736;50.462;4.850;2023-09-19T00:59:50;15.23;82.05
76040;SHT30;64736;50.462;4.850;2023-09-19T01:02:18;15.19;82.03
76040;SHT30;64736;50.462;4.850;2023-09-19T01:04:44;15.21;82.08
76040;SHT30;64736;50.462;4.850;2023-09-19T01:07:10;15.21;82.11
76040;SHT30;64736;50.462;4.850;2023-09-19T01:09:36;15.13;82.39
76040;SHT30;64736;50.462;4.850;2023-09-19T01:12:05;15.15;82.14
76040;SHT30;64736;50.462;4.850;2023-09-19T01:15:06;15.16;82.34
76040;SHT30;64736;50.462;4.850;2023-09-19T01:17:53;15.15;81.99
76040;SHT30;64736;50.462;4.850;2023-09-19T01:20:33;15.13;81.84
76040;SHT30;64736;50.462;4.850;2023-09-19T01:28:51;15.11;82.06
76040;SHT30;64736;50.462;4.850;2023-09-19T01:31:23;15.06;82.03
76040;SHT30;64736;50.462;4.850;2023-09-19T01:34:01;15.06;82.22
76040;SHT30;64736;50.462;4.850;2023-09-19T01:36:45;14.99;82.26
76040;SHT30;64736;50.462;4.850;2023-09-19T01:39:12;15.03;82.61
76040;SHT30;64736;50.462;4.850;2023-09-19T01:44:26;14.95;82.92
76040;SHT30;64736;50.462;4.850;2023-09-19T01:46:59;14.95;82.58
76040;SHT30;64736;50.462;4.850;2023-09-19T01:49:43;14.95;82.87
76040;SHT30;64736;50.462;4.850;2023-09-19T01:52:12;14.92;83.03
76040;SHT30;64736;50.462;4.850;2023-09-19T01:54:50;14.89;82.49
76040;SHT30;64736;50.462;4.850;2023-09-19T02:00:16;14.89;82.21
76040;SHT30;64736;50.462;4.850;2023-09-19T02:02:47;14.88;81.54
76040;SHT30;64736;50.462;4.850;2023-09-19T02:05:13;14.89;81.43
76040;SHT30;64736;50.462;4.850;2023-09-19T02:07:39;14.91;81.22
76040;SHT30;64736;50.462;4.850;2023-09-19T02:10:06;14.91;80.98
76040;SHT30;64736;50.462;4.850;2023-09-19T02:12:33;14.88;81.03
76040;SHT30;64736;50.462;4.850;2023-09-19T02:15:00;14.87;81.01
76040;SHT30;64736;50.462;4.850;2023-09-19T02:17:26;14.87;81.07
76040;SHT30;64736;50.462;4.850;2023-09-19T02:19:55;14.81;81.01
76040;SHT30;64736;50.462;4.850;2023-09-19T02:22:22;14.80;81.00
76040;SHT30;64736;50.462;4.850;2023-09-19T02:24:50;14.81;81.24
76040;SHT30;64736;50.462;4.850;2023-09-19T02:27:16;14.81;81.35
76040;SHT30;64736;50.462;4.850;2023-09-19T02:29:45;14.77;81.37
76040;SHT30;64736;50.462;4.850;2023-09-19T02:32:11;14.77;81.53
76040;SHT30;64736;50.462;4.850;2023-09-19T02:34:37;14.77;81.30
76040;SHT30;64736;50.462;4.850;2023-09-19T02:37:07;14.74;81.54
76040;SHT30;64736;50.462;4.850;2023-09-19T02:39:39;14.78;81.66
76040;SHT30;64736;50.462;4.850;2023-09-19T02:42:05;14.75;81.86
76040;SHT30;64736;50.462;4.850;2023-09-19T02:44:30;14.73;82.10
76040;SHT30;64736;50.462;4.850;2023-09-19T02:46:57;14.73;82.08
76040;SHT30;64736;50.462;4.850;2023-09-19T02:49:25;14.73;82.33
76040;SHT30;64736;50.462;4.850;2023-09-19T02:51:51;14.70;82.68
76040;SHT30;64736;50.462;4.850;2023-09-19T02:54:17;14.71;82.79
76040;SHT30;64736;50.462;4.850;2023-09-19T02:56:43;14.68;83.05
76040;SHT30;64736;50.462;4.850;2023-09-19T02:59:09;14.64;83.26
76040;SHT30;64736;50.462;4.850;2023-09-19T03:01:36;14.60;83.64
76040;SHT30;64736;50.462;4.850;2023-09-19T03:04:04;14.57;83.77
76040;SHT30;64736;50.462;4.850;2023-09-19T03:06:32;14.59;84.13
76040;SHT30;64736;50.462;4.850;2023-09-19T03:08:58;14.51;84.61
76040;SHT30;64736;50.462;4.850;2023-09-19T03:11:25;14.50;84.79
76040;SHT30;64736;50.462;4.850;2023-09-19T03:13:54;14.44;85.11
76040;SHT30;64736;50.462;4.850;2023-09-19T03:16:20;14.47;85.31
76040;SHT30;64736;50.462;4.850;2023-09-19T03:18:50;14.44;85.35
76040;SHT30;64736;50.462;4.850;2023-09-19T03:21:16;14.47;85.52
76040;SHT30;64736;50.462;4.850;2023-09-19T03:23:47;14.44;85.55
76040;SHT30;64736;50.462;4.850;2023-09-19T03:26:13;14.44;85.41
76040;SHT30;64736;50.462;4.850;2023-09-19T03:28:42;14.43;85.50
76040;SHT30;64736;50.462;4.850;2023-09-19T03:31:09;14.43;85.36
76040;SHT30;64736;50.462;4.850;2023-09-19T03:33:35;14.44;85.38
76040;SHT30;64736;50.462;4.850;2023-09-19T03:36:02;14.37;85.68
76040;SHT30;64736;50.462;4.850;2023-09-19T03:38:30;14.34;85.89
76040;SHT30;64736;50.462;4.850;2023-09-19T03:40:57;14.37;85.78
76040;SHT30;64736;50.462;4.850;2023-09-19T03:43:22;14.34;85.45
76040;SHT30;64736;50.462;4.850;2023-09-19T03:45:48;14.34;85.68
76040;SHT30;64736;50.462;4.850;2023-09-19T03:48:14;14.33;85.53
76040;SHT30;64736;50.462;4.850;2023-09-19T03:50:40;14.32;85.72
76040;SHT30;64736;50.462;4.850;2023-09-19T03:53:06;14.30;85.49
76040;SHT30;64736;50.462;4.850;2023-09-19T03:55:33;14.30;85.49
76040;SHT30;64736;50.462;4.850;2023-09-19T03:58:05;14.30;85.48
76040;SHT30;64736;50.462;4.850;2023-09-19T04:00:31;14.33;85.32
76040;SHT30;64736;50.462;4.850;2023-09-19T04:02:57;14.33;85.40
76040;SHT30;64736;50.462;4.850;2023-09-19T04:05:23;14.33;85.46
76040;SHT30;64736;50.462;4.850;2023-09-19T04:07:49;14.34;85.10
76040;SHT30;64736;50.462;4.850;2023-09-19T04:10:18;14.34;85.27
76040;SHT30;64736;50.462;4.850;2023-09-19T04:12:54;14.36;85.01
76040;SHT30;64736;50.462;4.850;2023-09-19T04:15:20;14.38;84.98
76040;SHT30;64736;50.462;4.850;2023-09-19T04:17:50;14.38;85.00
76040;SHT30;64736;50.462;4.850;2023-09-19T04:20:17;14.40;84.88
76040;SHT30;64736;50.462;4.850;2023-09-19T04:22:43;14.38;85.03
76040;SHT30;64736;50.462;4.850;2023-09-19T04:25:09;14.37;85.32
76040;SHT30;64736;50.462;4.850;2023-09-19T04:27:35;14.30;85.27
76040;SHT30;64736;50.462;4.850;2023-09-19T04:30:01;14.29;85.61
76040;SHT30;64736;50.462;4.850;2023-09-19T04:32:29;14.23;85.70
76040;SHT30;64736;50.462;4.850;2023-09-19T04:34:58;14.20;85.87
76040;SHT30;64736;50.462;4.850;2023-09-19T04:37:27;14.17;86.02
76040;SHT30;64736;50.462;4.850;2023-09-19T04:39:53;14.15;86.05
76040;SHT30;64736;50.462;4.850;2023-09-19T04:42:19;14.17;86.18
76040;SHT30;64736;50.462;4.850;2023-09-19T04:44:47;14.12;86.18
76040;SHT30;64736;50.462;4.850;2023-09-19T04:47:15;14.12;86.21
76040;SHT30;64736;50.462;4.850;2023-09-19T04:49:41;14.13;86.22
76040;SHT30;64736;50.462;4.850;2023-09-19T04:52:07;14.19;85.79
76040;SHT30;64736;50.462;4.850;2023-09-19T04:54:33;14.25;85.68
76040;SHT30;64736;50.462;4.850;2023-09-19T04:56:59;14.34;85.36
76040;SHT30;64736;50.462;4.850;2023-09-19T04:59:26;14.38;85.09
76040;SHT30;64736;50.462;4.850;2023-09-19T05:01:53;14.41;84.99
76040;SHT30;64736;50.462;4.850;2023-09-19T05:04:19;14.43;84.89
76040;SHT30;64736;50.462;4.850;2023-09-19T05:06:45;14.48;84.99
76040;SHT30;64736;50.462;4.850;2023-09-19T05:09:11;14.50;84.76
76040;SHT30;64736;50.462;4.850;2023-09-19T05:11:36;14.46;84.79
76040;SHT30;64736;50.462;4.850;2023-09-19T05:14:04;14.47;84.80
76040;SHT30;64736;50.462;4.850;2023-09-19T05:16:30;14.43;84.85
76040;SHT30;64736;50.462;4.850;2023-09-19T05:18:57;14.38;84.93
76040;SHT30;64736;50.462;4.850;2023-09-19T05:21:26;14.36;84.77
76040;SHT30;64736;50.462;4.850;2023-09-19T05:23:54;14.32;84.92
76040;SHT30;64736;50.462;4.850;2023-09-19T05:26:21;14.30;84.89
76040;SHT30;64736;50.462;4.850;2023-09-19T05:28:47;14.26;85.01
76040;SHT30;64736;50.462;4.850;2023-09-19T05:31:15;14.32;85.04
76040;SHT30;64736;50.462;4.850;2023-09-19T05:33:42;14.33;84.76
76040;SHT30;64736;50.462;4.850;2023-09-19T05:36:08;14.36;84.70
76040;SHT30;64736;50.462;4.850;2023-09-19T05:38:37;14.36;84.65
76040;SHT30;64736;50.462;4.850;2023-09-19T05:41:06;14.36;84.42
76040;SHT30;64736;50.462;4.850;2023-09-19T05:43:33;14.36;84.25
76040;SHT30;64736;50.462;4.850;2023-09-19T05:46:00;14.46;84.39
76040;SHT30;64736;50.462;4.850;2023-09-19T05:48:25;14.56;83.82
76040;SHT30;64736;50.462;4.850;2023-09-19T05:50:51;14.54;83.63
76040;SHT30;64736;50.462;4.850;2023-09-19T05:53:17;14.50;83.70
76040;SHT30;64736;50.462;4.850;2023-09-19T05:55:43;14.50;83.89
76040;SHT30;64736;50.462;4.850;2023-09-19T05:58:09;14.46;84.04
76040;SHT30;64736;50.462;4.850;2023-09-19T06:00:35;14.44;84.16
76040;SHT30;64736;50.462;4.850;2023-09-19T06:03:02;14.44;84.16
76040;SHT30;64736;50.462;4.850;2023-09-19T06:05:28;14.41;84.36
76040;SHT30;64736;50.462;4.850;2023-09-19T06:07:55;14.41;84.31
76040;SHT30;64736;50.462;4.850;2023-09-19T06:10:26;14.41;84.36
76040;SHT30;64736;50.462;4.850;2023-09-19T06:12:53;14.43;84.50
76040;SHT30;64736;50.462;4.850;2023-09-19T06:15:20;14.47;84.36
76040;SHT30;64736;50.462;4.850;2023-09-19T06:17:53;14.40;84.59
76040;SHT30;64736;50.462;4.850;2023-09-19T06:20:24;14.48;84.40
76040;SHT30;64736;50.462;4.850;2023-09-19T06:22:51;14.46;84.65
76040;SHT30;64736;50.462;4.850;2023-09-19T06:25:17;14.44;84.28
76040;SHT30;64736;50.462;4.850;2023-09-19T06:27:48;14.46;84.09
76040;SHT30;64736;50.462;4.850;2023-09-19T06:30:14;14.47;84.40
76040;SHT30;64736;50.462;4.850;2023-09-19T06:32:41;14.51;84.36
76040;SHT30;64736;50.462;4.850;2023-09-19T06:35:14;14.54;83.96
76040;SHT30;64736;50.462;4.850;2023-09-19T06:37:40;14.59;83.71
76040;SHT30;64736;50.462;4.850;2023-09-19T06:40:10;14.61;83.83
76040;SHT30;64736;50.462;4.850;2023-09-19T06:42:47;14.67;83.78
76040;SHT30;64736;50.462;4.850;2023-09-19T06:45:13;14.65;83.64
76040;SHT30;64736;50.462;4.850;2023-09-19T06:47:48;14.73;83.38
76040;SHT30;64736;50.462;4.850;2023-09-19T06:50:18;14.73;83.37
76040;SHT30;64736;50.462;4.850;2023-09-19T06:52:46;14.68;83.27
76040;SHT30;64736;50.462;4.850;2023-09-19T06:55:16;14.70;83.47
76040;SHT30;64736;50.462;4.850;2023-09-19T06:57:43;14.71;83.37
76040;SHT30;64736;50.462;4.850;2023-09-19T07:00:10;14.71;83.48
76040;SHT30;64736;50.462;4.850;2023-09-19T07:03:02;14.75;83.60
76040;SHT30;64736;50.462;4.850;2023-09-19T07:05:30;14.74;83.58
76040;SHT30;64736;50.462;4.850;2023-09-19T07:07:57;14.78;83.23
76040;SHT30;64736;50.462;4.850;2023-09-19T07:10:26;14.81;83.18
76040;SHT30;64736;50.462;4.850;2023-09-19T07:13:04;14.87;83.39
76040;SHT30;64736;50.462;4.850;2023-09-19T07:15:32;14.85;83.20
76040;SHT30;64736;50.462;4.850;2023-09-19T07:18:01;14.85;83.32
76040;SHT30;64736;50.462;4.850;2023-09-19T07:20:27;14.78;83.64
76040;SHT30;64736;50.462;4.850;2023-09-19T07:22:55;14.81;83.50
76040;SHT30;64736;50.462;4.850;2023-09-19T07:25:21;14.81;83.61
76040;SHT30;64736;50.462;4.850;2023-09-19T07:27:46;14.87;83.55
76040;SHT30;64736;50.462;4.850;2023-09-19T07:30:13;14.92;83.22
76040;SHT30;64736;50.462;4.850;2023-09-19T07:32:38;14.92;83.22
76040;SHT30;64736;50.462;4.850;2023-09-19T07:35:06;15.01;82.77
76040;SHT30;64736;50.462;4.850;2023-09-19T07:37:32;15.05;82.80
76040;SHT30;64736;50.462;4.850;2023-09-19T07:40:01;15.12;82.73
76040;SHT30;64736;50.462;4.850;2023-09-19T07:42:28;15.16;82.23
76040;SHT30;64736;50.462;4.850;2023-09-19T07:44:54;15.18;82.47
76040;SHT30;64736;50.462;4.850;2023-09-19T07:47:20;15.19;82.02
76040;SHT30;64736;50.462;4.850;2023-09-19T07:49:48;15.29;82.12
76040;SHT30;64736;50.462;4.850;2023-09-19T07:52:14;15.29;81.51
76040;SHT30;64736;50.462;4.850;2023-09-19T07:54:41;15.42;81.85
76040;SHT30;64736;50.462;4.850;2023-09-19T07:57:07;15.47;81.52
76040;SHT30;64736;50.462;4.850;2023-09-19T07:59:32;15.57;81.37
76040;SHT30;64736;50.462;4.850;2023-09-19T08:01:58;15.57;81.27
76040;SHT30;64736;50.462;4.850;2023-09-19T08:04:24;15.64;80.74
76040;SHT30;64736;50.462;4.850;2023-09-19T08:06:51;15.60;81.01
76040;SHT30;64736;50.462;4.850;2023-09-19T08:09:17;15.71;80.91
76040;SHT30;64736;50.462;4.850;2023-09-19T08:11:47;15.77;80.15
76040;SHT30;64736;50.462;4.850;2023-09-19T08:14:13;15.84;80.09
76040;SHT30;64736;50.462;4.850;2023-09-19T08:16:40;15.91;80.35
76040;SHT30;64736;50.462;4.850;2023-09-19T08:19:09;16.04;79.78
76040;SHT30;64736;50.462;4.850;2023-09-19T08:21:35;16.04;79.42
76040;SHT30;64736;50.462;4.850;2023-09-19T08:24:02;16.19;79.32
76040;SHT30;64736;50.462;4.850;2023-09-19T08:26:29;16.21;78.26
76040;SHT30;64736;50.462;4.850;2023-09-19T08:28:56;16.24;78.22
76040;SHT30;64736;50.462;4.850;2023-09-19T08:31:22;16.41;78.11
76040;SHT30;64736;50.462;4.850;2023-09-19T08:33:49;16.51;77.85
76040;SHT30;64736;50.462;4.850;2023-09-19T08:36:16;16.44;77.16
76040;SHT30;64736;50.462;4.850;2023-09-19T08:38:42;16.48;76.94
76040;SHT30;64736;50.462;4.850;2023-09-19T08:41:08;16.51;77.05
76040;SHT30;64736;50.462;4.850;2023-09-19T08:43:34;16.57;75.89
76040;SHT30;64736;50.462;4.850;2023-09-19T08:46:18;16.52;75.88
76040;SHT30;64736;50.462;4.850;2023-09-19T08:48:57;16.69;76.04
76040;SHT30;64736;50.462;4.850;2023-09-19T08:51:45;16.76;75.40
76040;SHT30;64736;50.462;4.850;2023-09-19T08:54:28;16.83;75.61
76040;SHT30;64736;50.462;4.850;2023-09-19T08:56:55;16.91;75.46
76040;SHT30;64736;50.462;4.850;2023-09-19T08:59:24;16.88;75.36
76040;SHT30;64736;50.462;4.850;2023-09-19T09:01:51;16.81;75.54
76040;SHT30;64736;50.462;4.850;2023-09-19T09:04:19;16.88;75.31
76040;SHT30;64736;50.462;4.850;2023-09-19T09:06:46;16.88;74.97
76040;SHT30;64736;50.462;4.850;2023-09-19T09:09:17;17.02;74.87
76040;SHT30;64736;50.462;4.850;2023-09-19T09:11:42;17.24;74.30
76040;SHT30;64736;50.462;4.850;2023-09-19T09:14:08;17.52;73.03
76040;SHT30;64736;50.462;4.850;2023-09-19T09:16:34;17.93;72.07
76040;SHT30;64736;50.462;4.850;2023-09-19T09:19:00;18.01;71.87
76040;SHT30;64736;50.462;4.850;2023-09-19T09:21:27;18.00;70.88
76040;SHT30;64736;50.462;4.850;2023-09-19T09:23:54;18.17;70.49
76040;SHT30;64736;50.462;4.850;2023-09-19T09:29:04;18.66;68.88
76040;SHT30;64736;50.462;4.850;2023-09-19T09:31:30;18.84;68.03
76040;SHT30;64736;50.462;4.850;2023-09-19T09:33:57;18.95;68.58
76040;SHT30;64736;50.462;4.850;2023-09-19T09:36:37;19.14;68.31
76040;SHT30;64736;50.462;4.850;2023-09-19T09:39:04;19.34;67.35
76040;SHT30;64736;50.462;4.850;2023-09-19T09:41:50;19.79;66.67
76040;SHT30;64736;50.462;4.850;2023-09-19T09:44:17;19.43;66.40
76040;SHT30;64736;50.462;4.850;2023-09-19T09:46:45;19.13;66.92
76040;SHT30;64736;50.462;4.850;2023-09-19T09:49:24;19.26;66.93
76040;SHT30;64736;50.462;4.850;2023-09-19T09:52:03;19.49;66.14
76040;SHT30;64736;50.462;4.850;2023-09-19T09:55:02;19.91;64.40
76040;SHT30;64736;50.462;4.850;2023-09-19T09:57:33;19.91;63.90
76040;SHT30;64736;50.462;4.850;2023-09-19T10:00:00;19.83;64.30
76040;SHT30;64736;50.462;4.850;2023-09-19T10:02:35;19.95;63.48
76040;SHT30;64736;50.462;4.850;2023-09-19T10:05:21;19.78;64.00
76040;SHT30;64736;50.462;4.850;2023-09-19T10:07:52;19.83;63.93
76040;SHT30;64736;50.462;4.850;2023-09-19T10:13:13;20.02;64.68
76040;SHT30;64736;50.462;4.850;2023-09-19T10:15:48;20.30;64.07
76040;SHT30;64736;50.462;4.850;2023-09-19T10:18:23;20.02;63.71
76040;SHT30;64736;50.462;4.850;2023-09-19T10:20:49;19.96;63.35
76040;SHT30;64736;50.462;4.850;2023-09-19T10:23:18;19.91;64.20
76040;SHT30;64736;50.462;4.850;2023-09-19T10:25:49;19.85;64.26
76040;SHT30;64736;50.462;4.850;2023-09-19T10:28:17;19.74;64.49
76040;SHT30;64736;50.462;4.850;2023-09-19T10:30:48;19.82;63.95
76040;SHT30;64736;50.462;4.850;2023-09-19T10:33:17;19.70;63.90
76040;SHT30;64736;50.462;4.850;2023-09-19T10:35:47;19.91;63.72
76040;SHT30;64736;50.462;4.850;2023-09-19T10:38:17;19.83;63.89
76040;SHT30;64736;50.462;4.850;2023-09-19T10:40:44;19.82;64.01
76040;SHT30;64736;50.462;4.850;2023-09-19T10:43:16;19.72;64.60
76040;SHT30;64736;50.462;4.850;2023-09-19T10:45:44;19.70;64.63
76040;SHT30;64736;50.462;4.850;2023-09-19T10:48:12;19.34;64.52
76040;SHT30;64736;50.462;4.850;2023-09-19T10:50:48;19.24;65.42
76040;SHT30;64736;50.462;4.850;2023-09-19T10:53:17;19.47;64.78
76040;SHT30;64736;50.462;4.850;2023-09-19T10:55:55;19.37;65.26
76040;SHT30;64736;50.462;4.850;2023-09-19T10:58:27;19.51;65.06
76040;SHT30;64736;50.462;4.850;2023-09-19T11:03:21;19.41;64.83
76040;SHT30;64736;50.462;4.850;2023-09-19T11:06:04;19.51;64.85
76040;SHT30;64736;50.462;4.850;2023-09-19T11:08:54;19.98;63.74
76040;SHT30;64736;50.462;4.850;2023-09-19T11:30:40;22.66;55.45
76040;SHT30;64736;50.462;4.850;2023-09-19T11:33:25;22.69;54.59
76040;SHT30;64736;50.462;4.850;2023-09-19T11:46:33;22.04;57.19
76040;SHT30;64736;50.462;4.850;2023-09-19T11:49:09;22.86;56.11
76040;SHT30;64736;50.462;4.850;2023-09-19T11:51:45;22.58;56.62
76040;SHT30;64736;50.462;4.850;2023-09-19T11:54:14;22.07;57.38
76040;SHT30;64736;50.462;4.850;2023-09-19T11:56:44;23.93;53.40
76040;SHT30;64736;50.462;4.850;2023-09-19T11:59:11;22.89;55.25
76040;SHT30;64736;50.462;4.850;2023-09-19T12:01:40;22.45;55.99
76040;SHT30;64736;50.462;4.850;2023-09-19T12:04:11;22.45;56.93
76040;SHT30;64736;50.462;4.850;2023-09-19T12:06:38;22.37;57.04
76040;SHT30;64736;50.462;4.850;2023-09-19T12:09:13;23.10;56.17
76040;SHT30;64736;50.462;4.850;2023-09-19T12:11:43;22.59;56.41
76040;SHT30;64736;50.462;4.850;2023-09-19T12:14:20;23.50;53.41
76040;SHT30;64736;50.462;4.850;2023-09-19T12:16:56;23.27;54.26
76040;SHT30;64736;50.462;4.850;2023-09-19T12:19:23;24.20;52.58
76040;SHT30;64736;50.462;4.850;2023-09-19T12:22:04;22.73;55.60
76040;SHT30;64736;50.462;4.850;2023-09-19T12:24:31;22.29;56.64
76040;SHT30;64736;50.462;4.850;2023-09-19T12:27:01;22.20;57.48
76040;SHT30;64736;50.462;4.850;2023-09-19T12:29:27;23.11;54.82
76040;SHT30;64736;50.462;4.850;2023-09-19T12:31:58;22.90;55.89
76040;SHT30;64736;50.462;4.850;2023-09-19T12:34:29;23.62;53.68
76040;SHT30;64736;50.462;4.850;2023-09-19T12:37:12;23.37;54.50
76040;SHT30;64736;50.462;4.850;2023-09-19T12:39:45;22.76;55.58
76040;SHT30;64736;50.462;4.850;2023-09-19T12:42:21;22.14;57.86
76040;SHT30;64736;50.462;4.850;2023-09-19T12:44:49;22.20;57.42
76040;SHT30;64736;50.462;4.850;2023-09-19T12:47:18;22.39;57.82
76040;SHT30;64736;50.462;4.850;2023-09-19T12:50:14;22.47;57.13
76040;SHT30;64736;50.462;4.850;2023-09-19T12:55:29;23.81;54.00
76040;SHT30;64736;50.462;4.850;2023-09-19T12:58:14;23.10;55.59
76040;SHT30;64736;50.462;4.850;2023-09-19T13:00:45;23.57;54.40
76040;SHT30;64736;50.462;4.850;2023-09-19T13:05:50;22.44;57.29
76040;SHT30;64736;50.462;4.850;2023-09-19T13:08:23;21.90;58.18
76040;SHT30;64736;50.462;4.850;2023-09-19T13:11:07;21.43;59.42
76040;SHT30;64736;50.462;4.850;2023-09-19T13:13:39;21.22;60.19
76040;SHT30;64736;50.462;4.850;2023-09-19T13:16:05;21.36;60.25
76040;SHT30;64736;50.462;4.850;2023-09-19T13:18:47;21.45;59.88
76040;SHT30;64736;50.462;4.850;2023-09-19T13:21:16;21.19;60.26
76040;SHT30;64736;50.462;4.850;2023-09-19T13:23:51;21.32;61.22
76040;SHT30;64736;50.462;4.850;2023-09-19T13:26:18;21.36;60.76
76040;SHT30;64736;50.462;4.850;2023-09-19T13:28:44;21.29;60.28
76040;SHT30;64736;50.462;4.850;2023-09-19T13:31:10;21.15;60.35
76040;SHT30;64736;50.462;4.850;2023-09-19T13:33:48;21.09;60.82
76040;SHT30;64736;50.462;4.850;2023-09-19T13:36:14;21.04;60.94
76040;SHT30;64736;50.462;4.850;2023-09-19T13:38:41;21.25;61.21
76040;SHT30;64736;50.462;4.850;2023-09-19T13:41:09;21.05;61.73
76040;SHT30;64736;50.462;4.850;2023-09-19T13:43:36;20.61;61.92
76040;SHT30;64736;50.462;4.850;2023-09-19T13:46:04;20.73;61.85
76040;SHT30;64736;50.462;4.850;2023-09-19T13:48:29;20.78;62.03
76040;SHT30;64736;50.462;4.850;2023-09-19T13:50:55;21.26;60.51
76040;SHT30;64736;50.462;4.850;2023-09-19T13:53:22;21.25;60.41
76040;SHT30;64736;50.462;4.850;2023-09-19T13:55:47;22.07;58.65
76040;SHT30;64736;50.462;4.850;2023-09-19T13:58:16;22.44;57.67
76040;SHT30;64736;50.462;4.850;2023-09-19T14:00:42;23.23;55.27
76040;SHT30;64736;50.462;4.850;2023-09-19T14:03:08;23.37;54.56
76040;SHT30;64736;50.462;4.850;2023-09-19T14:05:33;22.89;56.32
76040;SHT30;64736;50.462;4.850;2023-09-19T14:07:59;22.34;57.38
76040;SHT30;64736;50.462;4.850;2023-09-19T14:10:25;21.63;59.67
76040;SHT30;64736;50.462;4.850;2023-09-19T14:12:55;21.47;60.87
76040;SHT30;64736;50.462;4.850;2023-09-19T14:15:22;20.94;61.79
76040;SHT30;64736;50.462;4.850;2023-09-19T14:18:04;20.84;62.50
76040;SHT30;64736;50.462;4.850;2023-09-19T14:20:30;20.58;62.27
76040;SHT30;64736;50.462;4.850;2023-09-19T14:22:56;20.56;62.27
76040;SHT30;64736;50.462;4.850;2023-09-19T14:25:24;20.51;62.48
76040;SHT30;64736;50.462;4.850;2023-09-19T14:27:50;20.40;62.48
76040;SHT30;64736;50.462;4.850;2023-09-19T14:30:17;20.43;62.50
76040;SHT30;64736;50.462;4.850;2023-09-19T14:32:42;20.26;62.78
76040;SHT30;64736;50.462;4.850;2023-09-19T14:35:08;20.15;62.75
76040;SHT30;64736;50.462;4.850;2023-09-19T14:37:40;19.95;63.83
76040;SHT30;64736;50.462;4.850;2023-09-19T14:40:06;20.16;63.56
76040;SHT30;64736;50.462;4.850;2023-09-19T14:42:35;20.12;63.66
76040;SHT30;64736;50.462;4.850;2023-09-19T14:45:03;20.16;63.63
76040;SHT30;64736;50.462;4.850;2023-09-19T14:47:30;20.23;64.07
76040;SHT30;64736;50.462;4.850;2023-09-19T14:49:57;20.22;63.87
76040;SHT30;64736;50.462;4.850;2023-09-19T14:52:23;20.39;63.65
76040;SHT30;64736;50.462;4.850;2023-09-19T14:54:52;20.40;63.36
76040;SHT30;64736;50.462;4.850;2023-09-19T14:57:18;20.34;63.69
76040;SHT30;64736;50.462;4.850;2023-09-19T14:59:44;20.29;63.67
76040;SHT30;64736;50.462;4.850;2023-09-19T15:02:10;20.30;63.70
76040;SHT30;64736;50.462;4.850;2023-09-19T15:04:35;20.39;63.77
76040;SHT30;64736;50.462;4.850;2023-09-19T15:07:02;20.40;64.01
76040;SHT30;64736;50.462;4.850;2023-09-19T15:09:28;20.56;64.00
76040;SHT30;64736;50.462;4.850;2023-09-19T15:11:55;20.20;64.32
76040;SHT30;64736;50.462;4.850;2023-09-19T15:14:22;20.09;64.23
76040;SHT30;64736;50.462;4.850;2023-09-19T15:16:48;20.16;64.47
76040;SHT30;64736;50.462;4.850;2023-09-19T15:19:14;20.53;63.87
76040;SHT30;64736;50.462;4.850;2023-09-19T15:21:41;20.44;63.53
76040;SHT30;64736;50.462;4.850;2023-09-19T15:24:07;20.77;62.94
76040;SHT30;64736;50.462;4.850;2023-09-19T15:26:36;20.87;62.26
76040;SHT30;64736;50.462;4.850;2023-09-19T15:29:07;21.64;60.45
76040;SHT30;64736;50.462;4.850;2023-09-19T15:31:33;21.11;61.94
76040;SHT30;64736;50.462;4.850;2023-09-19T15:34:01;20.67;62.76
76040;SHT30;64736;50.462;4.850;2023-09-19T15:36:27;21.02;62.85
76040;SHT30;64736;50.462;4.850;2023-09-19T15:39:03;21.73;60.67
76040;SHT30;64736;50.462;4.850;2023-09-19T15:41:39;21.25;61.92
76040;SHT30;64736;50.462;4.850;2023-09-19T15:44:12;21.28;61.86
76040;SHT30;64736;50.462;4.850;2023-09-19T15:46:38;21.36;61.82
76040;SHT30;64736;50.462;4.850;2023-09-19T15:49:03;20.92;62.89
76040;SHT30;64736;50.462;4.850;2023-09-19T15:51:29;20.57;63.71
76040;SHT30;64736;50.462;4.850;2023-09-19T15:53:56;20.18;64.46
76040;SHT30;64736;50.462;4.850;2023-09-19T15:56:23;20.08;65.01
76040;SHT30;64736;50.462;4.850;2023-09-19T15:58:51;19.95;65.49
76040;SHT30;64736;50.462;4.850;2023-09-19T16:01:17;19.99;64.89
76040;SHT30;64736;50.462;4.850;2023-09-19T16:03:45;19.98;65.13
76040;SHT30;64736;50.462;4.850;2023-09-19T16:06:16;20.13;64.72
76040;SHT30;64736;50.462;4.850;2023-09-19T16:08:44;20.01;64.74
76040;SHT30;64736;50.462;4.850;2023-09-19T16:11:11;19.95;65.06
76040;SHT30;64736;50.462;4.850;2023-09-19T16:13:37;19.99;64.99
76040;SHT30;64736;50.462;4.850;2023-09-19T16:16:03;20.01;64.78
76040;SHT30;64736;50.462;4.850;2023-09-19T16:18:30;19.81;65.30
76040;SHT30;64736;50.462;4.850;2023-09-19T16:21:02;19.83;65.42
76040;SHT30;64736;50.462;4.850;2023-09-19T16:23:29;19.89;65.20
76040;SHT30;64736;50.462;4.850;2023-09-19T16:26:01;19.85;65.55
76040;SHT30;64736;50.462;4.850;2023-09-19T16:28:27;19.74;65.52
76040;SHT30;64736;50.462;4.850;2023-09-19T16:30:52;19.55;66.00
76040;SHT30;64736;50.462;4.850;2023-09-19T16:33:18;19.55;66.25
76040;SHT30;64736;50.462;4.850;2023-09-19T16:35:44;19.51;66.57